Time;durP1;ratioP1;P1;durP2;ratioP2;P2;SDS_P1;SDS_P2;PMS_P1;PMS_P2;Temp;Humidity;BMP_temperature;BMP_pressure;BME280_temperature;BME280_humidity;BME280_pressure;Samples;Min_cycle;Max_cycle;Signal;HPM_P1;HPM_P2
2020/12/16 00:03:30;;;;;;;34.40;11.30;;;;;;;;;;10206277;28;20548;-56
2020/12/16 00:08:28;;;;;;;31.27;9.70;;;;;;;;;;10208036;28;20176;-57
2020/12/16 00:13:25;;;;;;;38.13;12.30;;;;;;;;;;10193119;28;20554;-56
2020/12/16 00:18:22;;;;;;;38.50;14.57;;;;;;;;;;10213741;28;20578;-55
2020/12/16 00:23:20;;;;;;;24.07;10.83;;;;;;;;;;10207982;28;20034;-54
2020/12/16 00:28:17;;;;;;;43.53;16.00;;;;;;;;;;10204621;28;20077;-57
2020/12/16 00:33:18;;;;;;;34.47;12.00;;;;;;;;;;10212220;28;21348;-64
2020/12/16 00:38:16;;;;;;;32.50;11.43;;;;;;;;;;10218592;28;20046;-59
2020/12/16 00:43:13;;;;;;;36.27;14.00;;;;;;;;;;10194786;28;20047;-55
2020/12/16 00:48:10;;;;;;;41.20;15.60;;;;;;;;;;10203835;28;20061;-58
2020/12/16 00:53:08;;;;;;;36.03;13.27;;;;;;;;;;10228115;28;20039;-58
2020/12/16 00:58:11;;;;;;;40.88;15.18;;;;;;;;;;10221710;28;20038;-59
2020/12/16 01:03:13;;;;;;;43.17;15.68;;;;;;;;;;10225030;28;20038;-56
2020/12/16 01:08:10;;;;;;;32.47;14.00;;;;;;;;;;10211149;28;20038;-59
2020/12/16 01:13:11;;;;;;;42.97;15.75;;;;;;;;;;10222885;28;20038;-67
2020/12/16 01:18:09;;;;;;;26.65;11.63;;;;;;;;;;10208248;28;20038;-57
2020/12/16 01:23:10;;;;;;;35.03;12.10;;;;;;;;;;10211274;28;20042;-63
2020/12/16 01:28:07;;;;;;;25.07;9.70;;;;;;;;;;10213377;28;20428;-58
2020/12/16 01:33:14;;;;;;;33.33;13.13;;;;;;;;;;10216158;28;20073;-54
2020/12/16 01:38:14;;;;;;;33.33;12.98;;;;;;;;;;10229750;28;20042;-57
2020/12/16 01:43:16;;;;;;;22.77;8.52;;;;;;;;;;10215547;28;20404;-59
2020/12/16 01:48:14;;;;;;;32.65;13.65;;;;;;;;;;10220722;28;20039;-59
2020/12/16 01:53:12;;;;;;;43.20;14.40;;;;;;;;;;10211461;28;20038;-59
2020/12/16 01:58:18;;;;;;;19.65;6.90;;;;;;;;;;10215861;28;20074;-57
2020/12/16 02:03:20;;;;;;;23.65;9.90;;;;;;;;;;10214723;28;20627;-56
2020/12/16 02:08:45;;;;;;;34.13;13.27;;;;;;;;;;10221433;28;20038;-60
2020/12/16 02:13:46;;;;;;;18.90;8.27;;;;;;;;;;10219201;28;20034;-60
2020/12/16 02:18:47;;;;;;;33.90;11.67;;;;;;;;;;10214838;28;20034;-56
2020/12/16 02:23:50;;;;;;;36.72;11.70;;;;;;;;;;10234222;28;20085;-61
2020/12/16 02:28:50;;;;;;;24.60;10.90;;;;;;;;;;10216420;28;20089;-61
2020/12/16 02:33:48;;;;;;;28.50;11.25;;;;;;;;;;10218005;28;20093;-60
2020/12/16 02:38:54;;;;;;;23.67;9.38;;;;;;;;;;10233291;28;20034;-60
2020/12/16 02:43:56;;;;;;;28.60;10.93;;;;;;;;;;10214820;28;20362;-61
2020/12/16 02:48:54;;;;;;;32.60;13.43;;;;;;;;;;10219142;28;20034;-59
2020/12/16 02:53:56;;;;;;;29.08;10.95;;;;;;;;;;10196135;28;20548;-62
2020/12/16 02:59:15;;;;;;;20.40;8.13;;;;;;;;;;10215169;28;20223;-55
2020/12/16 03:04:19;;;;;;;9.25;4.50;;;;;;;;;;10205779;28;20497;-57
2020/12/16 03:09:34;;;;;;;6.05;2.95;;;;;;;;;;10195101;28;20622;-62
2020/12/16 03:14:32;;;;;;;22.98;5.75;;;;;;;;;;10220165;28;20141;-63
2020/12/16 03:19:31;;;;;;;6.72;2.92;;;;;;;;;;10208013;28;20034;-62
2020/12/16 03:24:29;;;;;;;;;;;;;;;;;;10204290;28;20056;-57
2020/12/16 03:29:37;;;;;;;8.77;6.10;;;;;;;;;;10207765;28;20311;-56
2020/12/16 03:34:53;;;;;;;16.42;5.10;;;;;;;;;;10210341;28;20545;-58
2020/12/16 03:39:53;;;;;;;7.53;3.40;;;;;;;;;;10201510;28;20034;-57
2020/12/16 03:44:57;;;;;;;5.07;3.75;;;;;;;;;;10177264;28;20487;-59
2020/12/16 03:49:55;;;;;;;4.87;2.80;;;;;;;;;;10205510;28;20049;-60
2020/12/16 03:54:53;;;;;;;5.50;3.17;;;;;;;;;;10200786;28;20034;-59
2020/12/16 04:00:13;;;;;;;6.70;4.43;;;;;;;;;;10185098;28;20039;-56
2020/12/16 04:05:13;;;;;;;16.30;5.80;;;;;;;;;;10208361;28;20057;-60
2020/12/16 04:10:11;;;;;;;8.87;3.83;;;;;;;;;;10217829;28;20057;-61
2020/12/16 04:15:09;;;;;;;7.82;3.40;;;;;;;;;;10180641;28;20242;-62
2020/12/16 04:20:06;;;;;;;16.90;5.33;;;;;;;;;;10215320;28;20571;-56
2020/12/16 04:25:09;;;;;;;10.80;4.50;;;;;;;;;;10206191;28;21931;-61
2020/12/16 04:30:09;;;;;;;13.50;3.63;;;;;;;;;;10206355;28;20038;-61
2020/12/16 04:35:15;;;;;;;12.60;3.03;;;;;;;;;;10229692;28;20122;-54
2020/12/16 04:40:15;;;;;;;12.55;5.88;;;;;;;;;;10223033;28;20042;-57
2020/12/16 04:45:12;;;;;;;10.93;5.83;;;;;;;;;;10205979;28;20038;-55
2020/12/16 04:50:15;;;;;;;15.70;6.22;;;;;;;;;;10211111;28;20125;-56
2020/12/16 04:55:20;;;;;;;24.50;8.90;;;;;;;;;;10182563;28;20069;-56
2020/12/16 05:00:38;;;;;;;24.95;9.65;;;;;;;;;;10196738;28;20039;-56
2020/12/16 05:05:47;;;;;;;18.95;7.70;;;;;;;;;;10216766;28;20259;-56
2020/12/16 05:10:47;;;;;;;18.67;7.93;;;;;;;;;;10193851;28;20062;-60
2020/12/16 05:15:45;;;;;;;19.15;8.07;;;;;;;;;;10194074;28;20042;-60
2020/12/16 05:20:44;;;;;;;13.88;6.88;;;;;;;;;;10186122;28;20038;-58
2020/12/16 05:25:56;;;;;;;20.33;7.22;;;;;;;;;;10192453;28;20050;-58
2020/12/16 05:30:58;;;;;;;17.52;7.07;;;;;;;;;;10201035;28;20038;-62
2020/12/16 05:35:55;;;;;;;18.15;7.07;;;;;;;;;;10171882;28;20568;-60
2020/12/16 05:40:53;;;;;;;16.13;7.07;;;;;;;;;;10197480;28;20046;-56
2020/12/16 05:45:50;;;;;;;22.93;7.90;;;;;;;;;;10210776;28;20066;-58
2020/12/16 05:51:06;;;;;;;19.47;6.50;;;;;;;;;;10207735;28;20046;-58
2020/12/16 05:56:04;;;;;;;15.70;5.97;;;;;;;;;;10203401;28;20050;-57
2020/12/16 06:01:05;;;;;;;15.63;6.28;;;;;;;;;;10204719;28;20031;-55
2020/12/16 06:06:03;;;;;;;14.80;6.75;;;;;;;;;;10183260;28;20409;-58
2020/12/16 06:11:01;;;;;;;13.57;6.13;;;;;;;;;;10199703;28;20044;-54
2020/12/16 06:16:05;;;;;;;19.20;6.72;;;;;;;;;;10193186;28;20031;-56
2020/12/16 06:21:04;;;;;;;17.42;7.85;;;;;;;;;;10181381;28;20501;-54
2020/12/16 06:26:01;;;;;;;;;;;;;;;;;;10188028;28;20113;-59
2020/12/16 06:31:17;;;;;;;14.50;5.30;;;;;;;;;;10192186;28;19921;-57
2020/12/16 06:36:16;;;;;;;20.98;5.75;;;;;;;;;;10201502;28;20049;-58
2020/12/16 06:41:20;;;;;;;14.20;6.45;;;;;;;;;;10191659;28;20063;-56
2020/12/16 06:46:30;;;;;;;24.60;6.65;;;;;;;;;;10202855;28;20047;-52
2020/12/16 06:51:30;;;;;;;16.95;5.75;;;;;;;;;;10203244;28;20038;-59
2020/12/16 06:56:28;;;;;;;19.02;6.10;;;;;;;;;;10193290;28;20855;-59
2020/12/16 07:01:26;;;;;;;15.80;7.13;;;;;;;;;;10188031;28;20046;-59
2020/12/16 07:06:43;;;;;;;23.53;7.10;;;;;;;;;;10207806;28;20043;-58
2020/12/16 07:11:41;;;;;;;13.27;6.00;;;;;;;;;;10197694;28;20041;-61
2020/12/16 07:16:39;;;;;;;17.55;6.57;;;;;;;;;;10195144;28;20061;-59
2020/12/16 07:21:38;;;;;;;22.63;7.13;;;;;;;;;;10194042;28;20061;-60
2020/12/16 07:26:42;;;;;;;19.52;6.78;;;;;;;;;;10195434;28;20496;-59
2020/12/16 07:31:51;;;;;;;15.50;7.00;;;;;;;;;;10194574;28;20148;-58
2020/12/16 07:36:55;;;;;;;18.90;7.43;;;;;;;;;;10194199;28;20041;-61
2020/12/16 07:41:56;;;;;;;16.63;6.93;;;;;;;;;;10201862;28;20508;-65
2020/12/16 07:47:01;;;;;;;11.00;4.65;;;;;;;;;;10206343;28;20035;-63
2020/12/16 07:52:00;;;;;;;14.02;5.40;;;;;;;;;;10188015;28;20039;-62
2020/12/16 07:56:57;;;;;;;;;;;;;;;;;;10190468;28;20125;-57
2020/12/16 08:02:07;;;;;;;18.83;6.55;;;;;;;;;;10208199;28;20016;-58
2020/12/16 08:07:11;;;;;;;11.73;5.60;;;;;;;;;;10193361;28;20081;-61
2020/12/16 08:12:10;;;;;;;21.75;11.07;;;;;;;;;;10185364;28;20509;-59
2020/12/16 08:17:08;;;;;;;22.00;8.55;;;;;;;;;;10169808;28;20042;-66
2020/12/16 08:22:16;;;;;;;23.77;10.13;;;;;;;;;;10186038;28;20049;-59
2020/12/16 08:27:17;;;;;;;32.75;10.07;;;;;;;;;;10196413;28;20046;-60
2020/12/16 08:32:17;;;;;;;17.65;6.47;;;;;;;;;;10198089;28;20042;-57
2020/12/16 08:37:14;;;;;;;19.77;7.75;;;;;;;;;;10178302;28;20049;-57
2020/12/16 08:42:12;;;;;;;14.83;7.03;;;;;;;;;;10181900;28;20053;-61
2020/12/16 08:47:22;;;;;;;16.83;6.90;;;;;;;;;;10167902;28;20098;-59
2020/12/16 08:52:20;;;;;;;18.35;7.57;;;;;;;;;;10213815;28;20118;-60
2020/12/16 08:57:20;;;;;;;21.90;7.83;;;;;;;;;;10192065;28;20577;-57
2020/12/16 09:02:17;;;;;;;15.02;6.10;;;;;;;;;;10192370;28;20122;-56
2020/12/16 09:07:22;;;;;;;22.97;8.60;;;;;;;;;;10175596;28;20129;-57
2020/12/16 09:12:21;;;;;;;24.67;11.82;;;;;;;;;;10195911;28;20056;-58
2020/12/16 09:17:19;;;;;;;25.42;8.75;;;;;;;;;;10201341;28;20038;-62
2020/12/16 09:22:24;;;;;;;18.57;8.50;;;;;;;;;;10199111;28;20097;-58
2020/12/16 09:27:21;;;;;;;24.67;8.70;;;;;;;;;;10200703;28;20123;-64
2020/12/16 09:32:19;;;;;;;21.13;8.57;;;;;;;;;;10192026;28;20039;-57
2020/12/16 09:37:17;;;;;;;23.42;8.48;;;;;;;;;;10187081;28;20030;-57
2020/12/16 09:42:16;;;;;;;13.60;6.40;;;;;;;;;;10172946;28;20038;-58
2020/12/16 09:47:20;;;;;;;18.23;8.35;;;;;;;;;;10205542;28;20042;-59
2020/12/16 09:52:38;;;;;;;16.15;7.40;;;;;;;;;;10180818;28;20029;-58
2020/12/16 09:57:35;;;;;;;12.40;7.07;;;;;;;;;;10162870;28;20038;-58
2020/12/16 10:02:33;;;;;;;17.80;8.37;;;;;;;;;;10201050;28;20485;-59
2020/12/16 10:07:31;;;;;;;13.17;6.17;;;;;;;;;;10173988;28;20669;-56
2020/12/16 10:12:29;;;;;;;;;;;;;;;;;;10196695;28;20034;-55
2020/12/16 10:17:26;;;;;;;11.00;5.55;;;;;;;;;;10186132;28;19917;-59
2020/12/16 10:22:23;;;;;;;18.27;7.73;;;;;;;;;;10193672;28;20064;-61
2020/12/16 10:27:21;;;;;;;19.23;5.47;;;;;;;;;;10198442;28;20046;-59
2020/12/16 10:32:20;;;;;;;12.47;5.30;;;;;;;;;;10192583;28;20540;-63
2020/12/16 10:37:18;;;;;;;10.93;5.82;;;;;;;;;;10187211;28;20043;-61
2020/12/16 10:42:16;;;;;;;14.17;5.87;;;;;;;;;;10185457;28;20042;-61
2020/12/16 10:47:13;;;;;;;21.47;8.83;;;;;;;;;;10171386;28;20039;-58
2020/12/16 10:52:11;;;;;;;15.53;5.67;;;;;;;;;;10178440;28;20050;-63
2020/12/16 10:57:09;;;;;;;16.58;7.38;;;;;;;;;;10196450;28;21238;-62
2020/12/16 11:02:07;;;;;;;11.13;5.30;;;;;;;;;;10162040;28;20433;-64
2020/12/16 11:07:05;;;;;;;25.23;10.23;;;;;;;;;;10189879;28;20064;-59
2020/12/16 11:12:02;;;;;;;25.30;9.80;;;;;;;;;;10199973;28;20034;-58
2020/12/16 11:17:00;;;;;;;24.83;11.70;;;;;;;;;;10189279;28;20893;-59
2020/12/16 11:21:57;;;;;;;22.50;9.87;;;;;;;;;;10180360;28;20037;-60
2020/12/16 11:26:55;;;;;;;33.87;13.20;;;;;;;;;;10209187;28;20039;-57
2020/12/16 11:31:54;;;;;;;22.97;10.83;;;;;;;;;;10186816;28;20447;-59
2020/12/16 11:36:52;;;;;;;25.45;9.98;;;;;;;;;;10183160;28;20057;-58
2020/12/16 11:41:51;;;;;;;33.53;16.15;;;;;;;;;;10193805;28;20081;-65
2020/12/16 11:46:49;;;;;;;25.40;12.73;;;;;;;;;;10206177;28;20400;-57
2020/12/16 11:51:47;;;;;;;29.55;12.82;;;;;;;;;;10189857;28;20030;-59
2020/12/16 11:56:44;;;;;;;21.53;10.67;;;;;;;;;;10192067;28;20092;-55
2020/12/16 12:01:42;;;;;;;25.20;11.27;;;;;;;;;;10209158;28;20061;-59
2020/12/16 12:06:42;;;;;;;25.30;10.05;;;;;;;;;;10181052;28;20074;-56
2020/12/16 12:11:40;;;;;;;26.08;12.50;;;;;;;;;;10179295;28;20042;-63
2020/12/16 12:16:37;;;;;;;21.63;9.80;;;;;;;;;;10180063;28;20104;-58
2020/12/16 12:21:34;;;;;;;26.37;11.60;;;;;;;;;;10202546;28;20045;-56
2020/12/16 12:26:32;;;;;;;19.23;9.10;;;;;;;;;;10189314;28;20035;-55
2020/12/16 12:31:29;;;;;;;20.67;8.40;;;;;;;;;;10191248;28;20027;-59
2020/12/16 12:36:27;;;;;;;18.37;8.70;;;;;;;;;;10190915;28;20088;-60
2020/12/16 12:41:24;;;;;;;21.97;10.33;;;;;;;;;;10192360;28;20076;-60
2020/12/16 12:46:22;;;;;;;24.60;10.17;;;;;;;;;;10197851;28;20058;-66
2020/12/16 12:51:19;;;;;;;26.40;12.17;;;;;;;;;;10209454;28;20044;-59
2020/12/16 12:56:17;;;;;;;23.87;10.33;;;;;;;;;;10207095;28;20480;-61
2020/12/16 13:01:15;;;;;;;21.77;10.68;;;;;;;;;;10224188;28;20427;-56
2020/12/16 13:06:13;;;;;;;25.43;11.70;;;;;;;;;;10187672;28;20030;-63
2020/12/16 13:11:11;;;;;;;20.92;10.18;;;;;;;;;;10202104;28;20093;-62
2020/12/16 13:16:09;;;;;;;21.77;9.77;;;;;;;;;;10201013;28;20029;-58
2020/12/16 13:21:07;;;;;;;25.90;12.73;;;;;;;;;;10193292;28;20046;-64
2020/12/16 13:26:04;;;;;;;24.83;10.95;;;;;;;;;;10216972;28;20046;-57
2020/12/16 13:31:03;;;;;;;26.50;11.93;;;;;;;;;;10212078;28;20039;-60
2020/12/16 13:36:00;;;;;;;29.60;10.82;;;;;;;;;;10222000;28;20034;-62
2020/12/16 13:40:59;;;;;;;22.30;9.90;;;;;;;;;;10210205;28;20413;-61
2020/12/16 13:45:57;;;;;;;28.88;12.23;;;;;;;;;;10210685;28;20038;-60
2020/12/16 13:50:55;;;;;;;29.60;11.07;;;;;;;;;;10200049;28;20492;-61
2020/12/16 13:55:52;;;;;;;21.70;8.77;;;;;;;;;;10210958;28;20039;-59
2020/12/16 14:00:50;;;;;;;20.33;8.07;;;;;;;;;;10207567;28;20054;-60
2020/12/16 14:05:48;;;;;;;20.10;8.93;;;;;;;;;;10207184;28;20041;-59
2020/12/16 14:10:45;;;;;;;13.63;7.30;;;;;;;;;;10195819;28;20049;-59
2020/12/16 14:15:44;;;;;;;17.27;8.13;;;;;;;;;;10223633;28;20027;-62
2020/12/16 14:20:41;;;;;;;;;;;;;;;;;;10200555;28;20046;-57
2020/12/16 14:25:39;;;;;;;22.70;9.50;;;;;;;;;;10211875;28;20344;-62
2020/12/16 14:30:36;;;;;;;33.33;12.73;;;;;;;;;;10209108;28;20158;-56
2020/12/16 14:35:34;;;;;;;27.27;11.63;;;;;;;;;;10209546;28;20042;-54
2020/12/16 14:40:32;;;;;;;33.27;12.60;;;;;;;;;;10207748;28;20046;-64
2020/12/16 14:45:30;;;;;;;20.02;8.57;;;;;;;;;;10191263;28;20043;-59
2020/12/16 14:50:28;;;;;;;15.87;6.20;;;;;;;;;;10209017;28;20953;-61
2020/12/16 14:55:25;;;;;;;10.97;6.87;;;;;;;;;;10211473;28;20052;-59
2020/12/16 15:00:22;;;;;;;19.90;8.67;;;;;;;;;;10195516;28;20473;-58
2020/12/16 15:05:20;;;;;;;27.23;9.27;;;;;;;;;;10188790;28;20038;-55
2020/12/16 15:10:18;;;;;;;16.40;7.15;;;;;;;;;;10202759;28;20447;-57
2020/12/16 15:15:16;;;;;;;17.77;8.90;;;;;;;;;;10205380;28;20042;-59
2020/12/16 15:20:14;;;;;;;16.65;8.07;;;;;;;;;;10202892;28;20088;-59
2020/12/16 15:25:12;;;;;;;33.55;13.95;;;;;;;;;;10215468;28;20093;-60
2020/12/16 15:30:11;;;;;;;28.58;12.35;;;;;;;;;;10206377;28;20046;-57
2020/12/16 15:35:09;;;;;;;28.38;11.85;;;;;;;;;;10206600;28;20034;-58
2020/12/16 15:40:07;;;;;;;;;;;;;;;;;;10199767;28;20568;-58
2020/12/16 15:45:05;;;;;;;18.02;8.00;;;;;;;;;;10201478;28;19914;-58
2020/12/16 15:50:03;;;;;;;;;;;;;;;;;;10183714;28;20046;-62
2020/12/16 15:55:00;;;;;;;28.50;12.10;;;;;;;;;;10193840;28;20284;-55
2020/12/16 15:59:57;;;;;;;34.57;14.07;;;;;;;;;;10183833;28;20038;-59
2020/12/16 16:04:55;;;;;;;30.00;10.03;;;;;;;;;;10200875;28;20034;-54
2020/12/16 16:09:52;;;;;;;24.67;9.47;;;;;;;;;;10193962;28;20121;-58
2020/12/16 16:14:49;;;;;;;22.77;10.87;;;;;;;;;;10189290;28;20037;-54
2020/12/16 16:19:47;;;;;;;24.17;9.60;;;;;;;;;;10218467;28;20038;-57
2020/12/16 16:24:47;;;;;;;25.50;9.87;;;;;;;;;;10213888;28;20035;-60
2020/12/16 16:29:44;;;;;;;30.65;14.07;;;;;;;;;;10196491;28;20451;-57
2020/12/16 16:34:42;;;;;;;23.00;10.00;;;;;;;;;;10183197;28;20038;-54
2020/12/16 16:39:39;;;;;;;18.40;8.53;;;;;;;;;;10204816;28;20030;-57
2020/12/16 16:44:37;;;;;;;23.23;9.20;;;;;;;;;;10204206;28;20405;-54
2020/12/16 16:49:34;;;;;;;18.67;8.03;;;;;;;;;;10196696;28;20443;-60
2020/12/16 16:54:31;;;;;;;23.57;9.57;;;;;;;;;;10186330;28;20041;-58
2020/12/16 16:59:29;;;;;;;29.13;11.27;;;;;;;;;;10182369;28;20057;-61
2020/12/16 17:04:27;;;;;;;19.10;9.88;;;;;;;;;;10198137;28;20066;-52
2020/12/16 17:09:24;;;;;;;30.47;12.40;;;;;;;;;;10199132;28;20066;-56
2020/12/16 17:14:23;;;;;;;20.23;8.10;;;;;;;;;;10207869;28;20397;-60
2020/12/16 17:19:20;;;;;;;29.33;12.93;;;;;;;;;;10200112;28;20509;-59
2020/12/16 17:24:18;;;;;;;23.80;10.53;;;;;;;;;;10197794;28;20420;-59
2020/12/16 17:29:16;;;;;;;22.63;10.93;;;;;;;;;;10206720;28;20042;-55
2020/12/16 17:34:13;;;;;;;26.10;11.90;;;;;;;;;;10203206;28;20070;-56
2020/12/16 17:39:11;;;;;;;24.20;10.57;;;;;;;;;;10200729;28;20050;-61
2020/12/16 17:44:09;;;;;;;25.67;11.40;;;;;;;;;;10206875;28;20146;-56
2020/12/16 17:49:06;;;;;;;30.85;10.40;;;;;;;;;;10199233;28;20038;-58
2020/12/16 17:54:04;;;;;;;22.00;8.60;;;;;;;;;;10193690;28;20101;-62
2020/12/16 17:59:01;;;;;;;22.03;8.70;;;;;;;;;;10187407;28;20042;-55
2020/12/16 18:03:59;;;;;;;24.40;10.27;;;;;;;;;;10204097;28;20043;-59
2020/12/16 18:08:57;;;;;;;23.95;10.80;;;;;;;;;;10197099;28;20078;-57
2020/12/16 18:13:54;;;;;;;17.10;9.83;;;;;;;;;;10210473;28;20121;-56
2020/12/16 18:18:54;;;;;;;18.10;6.93;;;;;;;;;;10213238;28;20474;-58
2020/12/16 18:23:51;;;;;;;22.17;8.68;;;;;;;;;;10207503;28;20034;-60
2020/12/16 18:28:49;;;;;;;21.63;10.97;;;;;;;;;;10202142;28;20042;-58
2020/12/16 18:33:46;;;;;;;30.00;9.93;;;;;;;;;;10212065;28;20409;-60
2020/12/16 18:38:43;;;;;;;23.80;11.17;;;;;;;;;;10199294;28;20446;-54
2020/12/16 18:43:41;;;;;;;26.27;11.67;;;;;;;;;;10203422;28;20508;-53
2020/12/16 18:48:40;;;;;;;22.27;10.90;;;;;;;;;;10196807;28;20042;-59
2020/12/16 18:53:38;;;;;;;33.83;12.73;;;;;;;;;;10202020;28;20045;-57
2020/12/16 18:58:35;;;;;;;26.67;11.13;;;;;;;;;;10193651;28;20049;-57
2020/12/16 19:03:32;;;;;;;23.83;9.90;;;;;;;;;;10202921;28;20042;-51
2020/12/16 19:08:30;;;;;;;24.97;11.50;;;;;;;;;;10206177;28;20049;-59
2020/12/16 19:13:27;;;;;;;23.07;9.10;;;;;;;;;;10197349;28;20113;-56
2020/12/16 19:18:25;;;;;;;24.93;10.17;;;;;;;;;;10202077;28;20039;-58
2020/12/16 19:23:22;;;;;;;22.27;9.60;;;;;;;;;;10208192;28;20552;-58
2020/12/16 19:28:20;;;;;;;29.90;12.13;;;;;;;;;;10199525;28;20413;-57
2020/12/16 19:33:17;;;;;;;35.80;13.17;;;;;;;;;;10197905;28;20432;-59
2020/12/16 19:38:14;;;;;;;24.37;10.83;;;;;;;;;;10205942;28;20485;-59
2020/12/16 19:43:12;;;;;;;27.73;12.23;;;;;;;;;;10191228;28;20065;-61
2020/12/16 19:48:09;;;;;;;23.87;10.47;;;;;;;;;;10188358;28;20057;-58
2020/12/16 19:53:06;;;;;;;25.83;12.20;;;;;;;;;;10190615;28;20129;-58
2020/12/16 19:58:04;;;;;;;24.60;11.93;;;;;;;;;;10190868;28;20046;-58
2020/12/16 20:03:01;;;;;;;22.40;10.00;;;;;;;;;;10184773;28;20039;-59
2020/12/16 20:07:59;;;;;;;29.90;12.40;;;;;;;;;;10196993;28;20038;-60
2020/12/16 20:13:00;;;;;;;31.73;11.70;;;;;;;;;;10191945;28;20089;-59
2020/12/16 20:17:57;;;;;;;33.35;12.90;;;;;;;;;;10194264;28;20030;-58
2020/12/16 20:22:55;;;;;;;31.43;12.00;;;;;;;;;;10207862;28;20030;-60
2020/12/16 20:27:52;;;;;;;23.73;11.80;;;;;;;;;;10201213;28;20057;-63
2020/12/16 20:32:50;;;;;;;33.40;14.80;;;;;;;;;;10209636;28;20045;-59
2020/12/16 20:37:47;;;;;;;36.63;14.27;;;;;;;;;;10198650;28;20110;-57
2020/12/16 20:42:44;;;;;;;32.37;13.70;;;;;;;;;;10209823;28;20042;-59
2020/12/16 20:47:42;;;;;;;27.33;11.97;;;;;;;;;;10202619;28;20724;-58
2020/12/16 20:52:40;;;;;;;21.93;11.70;;;;;;;;;;10196202;28;20049;-61
2020/12/16 20:57:38;;;;;;;;;;;;;;;;;;10216756;28;20114;-56
2020/12/16 21:02:35;;;;;;;27.25;10.98;;;;;;;;;;10206404;28;19914;-60
2020/12/16 21:07:33;;;;;;;27.87;11.37;;;;;;;;;;10196473;28;20038;-58
2020/12/16 21:12:30;;;;;;;22.90;9.13;;;;;;;;;;10197273;28;20046;-57
2020/12/16 21:17:28;;;;;;;31.83;12.97;;;;;;;;;;10208432;28;20562;-55
2020/12/16 21:22:25;;;;;;;19.70;9.93;;;;;;;;;;10211446;28;20528;-55
2020/12/16 21:27:22;;;;;;;26.70;10.73;;;;;;;;;;10201596;28;20038;-59
2020/12/16 21:32:20;;;;;;;18.87;8.00;;;;;;;;;;10202498;28;20528;-60
2020/12/16 21:37:17;;;;;;;23.17;9.60;;;;;;;;;;10198751;28;20447;-58
2020/12/16 21:42:15;;;;;;;18.43;9.37;;;;;;;;;;10204457;28;20066;-58
2020/12/16 21:47:13;;;;;;;20.30;9.20;;;;;;;;;;10195493;28;20436;-55
2020/12/16 21:52:11;;;;;;;23.13;10.30;;;;;;;;;;10216001;28;20436;-56
2020/12/16 21:57:08;;;;;;;16.90;8.57;;;;;;;;;;10217389;28;20046;-56
2020/12/16 22:02:06;;;;;;;19.00;7.97;;;;;;;;;;10214841;28;20076;-51
2020/12/16 22:07:03;;;;;;;17.90;7.73;;;;;;;;;;10207025;28;20033;-57
2020/12/16 22:12:01;;;;;;;18.47;8.20;;;;;;;;;;10201756;28;20535;-51
2020/12/16 22:17:02;;;;;;;18.60;8.53;;;;;;;;;;10206645;28;20702;-59
2020/12/16 22:21:59;;;;;;;19.58;9.23;;;;;;;;;;10201692;28;20520;-52
2020/12/16 22:26:56;;;;;;;16.13;8.33;;;;;;;;;;10206158;28;20092;-58
2020/12/16 22:31:54;;;;;;;16.77;8.47;;;;;;;;;;10212968;28;20035;-57
2020/12/16 22:36:51;;;;;;;21.90;9.37;;;;;;;;;;10204009;28;20034;-55
2020/12/16 22:41:49;;;;;;;14.53;7.67;;;;;;;;;;10207400;28;20125;-59
2020/12/16 22:46:46;;;;;;;19.43;8.73;;;;;;;;;;10208774;28;20043;-58
2020/12/16 22:51:43;;;;;;;16.07;8.73;;;;;;;;;;10210908;28;20121;-54
2020/12/16 22:56:41;;;;;;;16.53;8.60;;;;;;;;;;10209998;28;20045;-60
2020/12/16 23:01:39;;;;;;;16.53;7.37;;;;;;;;;;10207375;28;20026;-55
2020/12/16 23:06:36;;;;;;;19.10;9.45;;;;;;;;;;10200485;28;20053;-59
2020/12/16 23:11:34;;;;;;;20.23;8.50;;;;;;;;;;10197078;28;20086;-57
2020/12/16 23:16:31;;;;;;;15.17;7.67;;;;;;;;;;10212242;28;20034;-57
2020/12/16 23:21:28;;;;;;;18.00;7.93;;;;;;;;;;10201519;28;20043;-55
2020/12/16 23:26:26;;;;;;;13.87;7.17;;;;;;;;;;10197662;28;20046;-60
2020/12/16 23:31:24;;;;;;;13.67;8.50;;;;;;;;;;10215569;28;20049;-61
2020/12/16 23:36:21;;;;;;;18.90;8.43;;;;;;;;;;10218427;28;20038;-57
2020/12/16 23:41:18;;;;;;;15.10;7.17;;;;;;;;;;10218123;28;20046;-52
2020/12/16 23:46:16;;;;;;;11.57;6.37;;;;;;;;;;10210344;28;20133;-58
2020/12/16 23:51:13;;;;;;;14.13;8.00;;;;;;;;;;10211618;28;20042;-58
2020/12/16 23:56:15;;;;;;;13.33;8.40;;;;;;;;;;10196736;28;20050;-63
